Time,TemperatureF,DewpointF,PressureIn,WindDirection,WindDirectionDegrees,WindSpeedMPH,WindSpeedGustMPH,Humidity,HourlyPrecipIn,Conditions,Clouds,dailyrainin,SoftwareType,DateUTC
2013-01-15 00:02:00,2.8,-2.6,30.05,WNW,292,2.2,4.0,78,0.00,,,0.00,WUHU21623XXSP,2013-01-15 06:02:00,
2013-01-15 00:07:00,2.8,-2.6,30.05,WNW,292,0.6,4.0,78,0.00,,,0.00,WUHU21623XXSP,2013-01-15 06:07:00,
2013-01-15 00:12:00,3.0,-2.4,30.05,WNW,292,4.0,4.0,78,0.00,,,0.00,WUHU21623XXSP,2013-01-15 06:12:00,
2013-01-15 00:17:00,3.0,-2.4,30.05,WNW,292,1.3,4.0,78,0.00,,,0.00,WUHU21623XXSP,2013-01-15 06:17:00,
2013-01-15 00:22:00,3.0,-2.4,30.04,WNW,292,1.3,3.1,78,0.00,,,0.00,WUHU21623XXSP,2013-01-15 06:22:00,
2013-01-15 00:27:00,3.0,-2.4,30.04,WNW,292,1.0,2.9,78,0.00,,,0.00,WUHU21623XXSP,2013-01-15 06:27:00,
2013-01-15 00:32:00,3.0,-2.4,30.05,WNW,292,1.4,3.4,78,0.00,,,0.00,WUHU21623XXSP,2013-01-15 06:32:00,
2013-01-15 00:37:00,3.2,-2.2,30.04,WNW,292,1.0,3.4,78,0.00,,,0.00,WUHU21623XXSP,2013-01-15 06:37:00,
2013-01-15 00:42:00,3.4,-2.0,30.04,WNW,292,0.3,3.1,78,0.00,,,0.00,WUHU21623XXSP,2013-01-15 06:42:00,
2013-01-15 00:47:00,3.4,-2.0,30.04,WNW,292,1.3,2.9,78,0.00,,,0.00,WUHU21623XXSP,2013-01-15 06:47:00,
2013-01-15 00:52:00,3.4,-2.0,30.04,WNW,292,1.1,3.6,78,0.00,,,0.00,WUHU21623XXSP,2013-01-15 06:52:00,
2013-01-15 00:57:00,3.6,-1.9,30.04,WNW,292,0.0,3.6,78,0.00,,,0.00,WUHU21623XXSP,2013-01-15 06:57:00,
2013-01-15 01:02:00,3.6,-1.9,30.04,WNW,292,0.2,1.6,78,0.00,,,0.00,WUHU21623XXSP,2013-01-15 07:02:00,
2013-01-15 01:07:00,3.7,-1.9,30.04,WNW,292,0.4,1.6,77,0.00,,,0.00,WUHU21623XXSP,2013-01-15 07:07:00,
2013-01-15 01:12:00,3.9,-1.5,30.04,WNW,292,0.6,3.1,78,0.00,,,0.00,WUHU21623XXSP,2013-01-15 07:12:00,
2013-01-15 01:17:00,3.9,-1.8,30.04,WNW,292,0.9,3.1,77,0.00,,,0.00,WUHU21623XXSP,2013-01-15 07:17:00,
2013-01-15 01:22:00,4.1,-1.6,30.04,WNW,292,1.5,3.6,77,0.00,,,0.00,WUHU21623XXSP,2013-01-15 07:22:00,
2013-01-15 01:27:00,3.9,-1.8,30.03,WNW,292,1.1,3.6,77,0.00,,,0.00,WUHU21623XXSP,2013-01-15 07:27:00,
2013-01-15 01:32:00,3.9,-1.8,30.03,WNW,292,0.3,2.0,77,0.00,,,0.00,WUHU21623XXSP,2013-01-15 07:32:00,
2013-01-15 01:37:00,4.1,-1.3,30.03,WNW,292,0.1,4.0,78,0.00,,,0.00,WUHU21623XXSP,2013-01-15 07:37:00,
2013-01-15 01:42:00,4.3,-1.2,30.02,WNW,292,0.7,4.0,78,0.00,,,0.00,WUHU21623XXSP,2013-01-15 07:42:00,
2013-01-15 01:47:00,4.5,-1.0,30.02,WNW,292,2.0,2.0,78,0.00,,,0.00,WUHU21623XXSP,2013-01-15 07:47:00,
2013-01-15 01:52:00,4.5,-1.3,30.02,WNW,292,1.6,2.9,77,0.00,,,0.00,WUHU21623XXSP,2013-01-15 07:52:00,
2013-01-15 01:57:00,4.8,-0.9,30.02,WNW,292,0.7,2.9,77,0.00,,,0.00,WUHU21623XXSP,2013-01-15 07:57:00,
2013-01-15 02:02:00,4.8,-0.9,30.02,WNW,292,0.7,2.9,77,0.00,,,0.00,WUHU21623XXSP,2013-01-15 08:02:00,
2013-01-15 02:10:00,4.8,-0.9,30.02,WNW,292,0.3,2.7,77,0.00,,,0.00,WUHU21623XXSP,2013-01-15 08:10:00,
2013-01-15 02:15:00,5.2,-0.5,30.02,WNW,292,0.2,3.4,77,0.00,,,0.00,WUHU21623XXSP,2013-01-15 08:15:00,
2013-01-15 02:20:00,5.2,-0.5,30.01,WNW,292,0.8,3.1,77,0.00,,,0.00,WUHU21623XXSP,2013-01-15 08:20:00,
2013-01-15 02:25:00,5.2,-0.5,30.01,WNW,292,0.2,5.8,77,0.00,,,0.00,WUHU21623XXSP,2013-01-15 08:25:00,
2013-01-15 02:30:00,5.4,-0.7,30.01,WNW,292,0.1,5.8,76,0.00,,,0.00,WUHU21623XXSP,2013-01-15 08:30:00,
2013-01-15 02:35:00,5.4,-0.4,30.01,WNW,292,1.6,2.7,77,0.00,,,0.00,WUHU21623XXSP,2013-01-15 08:35:00,
2013-01-15 02:40:00,5.4,-0.4,30.01,WNW,292,0.7,3.8,77,0.00,,,0.00,WUHU21623XXSP,2013-01-15 08:40:00,
2013-01-15 02:45:00,5.4,-0.4,30.01,WNW,292,0.8,3.8,77,0.00,,,0.00,WUHU21623XXSP,2013-01-15 08:45:00,
2013-01-15 02:50:00,5.2,-0.5,30.01,WNW,292,2.3,4.0,77,0.00,,,0.00,WUHU21623XXSP,2013-01-15 08:50:00,
2013-01-15 02:55:00,5.2,-0.5,30.01,WNW,292,0.2,4.0,77,0.00,,,0.00,WUHU21623XXSP,2013-01-15 08:55:00,
2013-01-15 03:00:00,5.2,-0.5,30.01,WNW,292,0.2,3.8,77,0.00,,,0.00,WUHU21623XXSP,2013-01-15 09:00:00,
2013-01-15 03:05:00,5.0,-0.7,30.00,WNW,292,0.5,2.2,77,0.00,,,0.00,WUHU21623XXSP,2013-01-15 09:05:00,
2013-01-15 03:10:00,5.0,-0.4,30.01,WNW,292,0.0,1.6,78,0.00,,,0.00,WUHU21623XXSP,2013-01-15 09:10:00,
2013-01-15 03:15:00,5.2,-0.5,30.00,WNW,292,0.0,1.8,77,0.00,,,0.00,WUHU21623XXSP,2013-01-15 09:15:00,
2013-01-15 03:20:00,5.2,-0.5,30.00,WNW,292,0.3,1.8,77,0.00,,,0.00,WUHU21623XXSP,2013-01-15 09:20:00,
2013-01-15 03:25:00,5.4,-0.4,30.00,WNW,292,0.0,1.8,77,0.00,,,0.00,WUHU21623XXSP,2013-01-15 09:25:00,
2013-01-15 03:30:00,5.5,-0.2,30.00,WNW,292,0.5,2.0,77,0.00,,,0.00,WUHU21623XXSP,2013-01-15 09:30:00,
2013-01-15 03:35:00,5.5,-0.2,30.00,WNW,292,0.2,2.2,77,0.00,,,0.00,WUHU21623XXSP,2013-01-15 09:35:00,
2013-01-15 03:40:00,5.5,-0.2,29.99,WNW,292,0.0,2.2,77,0.00,,,0.00,WUHU21623XXSP,2013-01-15 09:40:00,
2013-01-15 03:45:00,5.5,-0.2,30.00,WNW,292,0.2,4.5,77,0.00,,,0.00,WUHU21623XXSP,2013-01-15 09:45:00,
2013-01-15 03:50:00,5.5,-0.2,29.99,WNW,292,0.0,4.5,77,0.00,,,0.00,WUHU21623XXSP,2013-01-15 09:50:00,
2013-01-15 03:55:00,5.5,0.1,29.99,WNW,292,0.3,1.3,78,0.00,,,0.00,WUHU21623XXSP,2013-01-15 09:55:00,
2013-01-15 04:00:00,5.5,0.1,29.99,WNW,292,0.4,1.3,78,0.00,,,0.00,WUHU21623XXSP,2013-01-15 10:00:00,
2013-01-15 04:05:00,5.5,0.1,29.99,WNW,292,0.0,2.2,78,0.00,,,0.00,WUHU21623XXSP,2013-01-15 10:05:00,
2013-01-15 04:10:00,5.5,0.1,29.99,WNW,292,0.2,2.2,78,0.00,,,0.00,WUHU21623XXSP,2013-01-15 10:10:00,
2013-01-15 04:15:00,5.0,-0.4,29.99,WNW,292,0.7,1.8,78,0.00,,,0.00,WUHU21623XXSP,2013-01-15 10:15:00,
2013-01-15 04:20:00,4.8,-0.6,29.98,WNW,292,0.9,1.8,78,0.00,,,0.00,WUHU21623XXSP,2013-01-15 10:20:00,
2013-01-15 04:25:00,4.6,-0.5,29.98,WNW,292,0.7,2.2,79,0.00,,,0.00,WUHU21623XXSP,2013-01-15 10:25:00,
2013-01-15 04:30:00,4.3,-0.9,29.99,WNW,292,1.8,2.2,79,0.00,,,0.00,WUHU21623XXSP,2013-01-15 10:30:00,
2013-01-15 04:35:00,4.3,-0.9,29.98,WNW,292,0.0,1.8,79,0.00,,,0.00,WUHU21623XXSP,2013-01-15 10:35:00,
2013-01-15 04:40:00,4.3,-0.9,29.99,WNW,292,0.8,2.0,79,0.00,,,0.00,WUHU21623XXSP,2013-01-15 10:40:00,
2013-01-15 04:45:00,4.5,-0.7,29.98,WNW,292,0.0,2.0,79,0.00,,,0.00,WUHU21623XXSP,2013-01-15 10:45:00,
2013-01-15 04:50:00,4.6,-0.5,29.98,WNW,292,0.0,1.6,79,0.00,,,0.00,WUHU21623XXSP,2013-01-15 10:50:00,
2013-01-15 04:55:00,4.8,-0.3,29.98,WNW,292,0.7,0.7,79,0.00,,,0.00,WUHU21623XXSP,2013-01-15 10:55:00,
2013-01-15 05:00:00,4.8,-0.3,29.98,WNW,292,0.0,2.0,79,0.00,,,0.00,WUHU21623XXSP,2013-01-15 11:00:00,
2013-01-15 05:05:00,4.8,-0.3,29.97,WNW,292,0.0,2.0,79,0.00,,,0.00,WUHU21623XXSP,2013-01-15 11:05:00,
2013-01-15 05:10:00,5.0,-0.1,29.97,WNW,292,0.1,3.4,79,0.00,,,0.00,WUHU21623XXSP,2013-01-15 11:10:00,
2013-01-15 05:15:00,5.2,0.0,29.97,WNW,292,0.6,3.4,79,0.00,,,0.00,WUHU21623XXSP,2013-01-15 11:15:00,
2013-01-15 05:20:00,5.4,0.2,29.97,WNW,292,0.3,4.0,79,0.00,,,0.00,WUHU21623XXSP,2013-01-15 11:20:00,
2013-01-15 05:25:00,5.4,0.2,29.97,WNW,292,0.7,4.0,79,0.00,,,0.00,WUHU21623XXSP,2013-01-15 11:25:00,
2013-01-15 05:30:00,5.4,0.2,29.97,WNW,292,0.0,3.1,79,0.00,,,0.00,WUHU21623XXSP,2013-01-15 11:30:00,
2013-01-15 05:35:00,5.5,0.4,29.96,WNW,292,0.3,2.2,79,0.00,,,0.00,WUHU21623XXSP,2013-01-15 11:35:00,
2013-01-15 05:40:00,5.5,0.4,29.97,WNW,292,6.5,6.5,79,0.00,,,0.00,WUHU21623XXSP,2013-01-15 11:40:00,
2013-01-15 05:45:00,5.5,0.1,29.97,WNW,292,0.4,6.5,78,0.00,,,0.00,WUHU21623XXSP,2013-01-15 11:45:00,
2013-01-15 05:50:00,5.5,0.1,29.97,WNW,292,0.6,4.3,78,0.00,,,0.00,WUHU21623XXSP,2013-01-15 11:50:00,
2013-01-15 05:55:00,5.7,0.6,29.97,WNW,292,1.0,2.7,79,0.00,,,0.00,WUHU21623XXSP,2013-01-15 11:55:00,
2013-01-15 06:00:00,5.7,0.6,29.97,WNW,292,0.0,2.7,79,0.00,,,0.00,WUHU21623XXSP,2013-01-15 12:00:00,
2013-01-15 06:05:00,5.5,0.1,29.97,WNW,292,1.0,2.0,78,0.00,,,0.00,WUHU21623XXSP,2013-01-15 12:05:00,
2013-01-15 06:10:00,5.5,0.4,29.97,WNW,292,0.0,2.0,79,0.00,,,0.00,WUHU21623XXSP,2013-01-15 12:10:00,
2013-01-15 06:15:00,5.5,0.4,29.97,WNW,292,0.9,2.0,79,0.00,,,0.00,WUHU21623XXSP,2013-01-15 12:15:00,
2013-01-15 06:20:00,5.7,0.6,29.96,WNW,292,4.0,4.0,79,0.00,,,0.00,WUHU21623XXSP,2013-01-15 12:20:00,
2013-01-15 06:25:00,5.7,0.6,29.96,WNW,292,1.3,4.0,79,0.00,,,0.00,WUHU21623XXSP,2013-01-15 12:25:00,
2013-01-15 06:30:00,5.7,0.6,29.96,WNW,292,0.9,4.3,79,0.00,,,0.00,WUHU21623XXSP,2013-01-15 12:30:00,
2013-01-15 06:35:00,5.7,0.6,29.96,WNW,292,0.1,4.3,79,0.00,,,0.00,WUHU21623XXSP,2013-01-15 12:35:00,
2013-01-15 06:40:00,5.9,0.8,29.96,WNW,292,0.2,2.2,79,0.00,,,0.00,WUHU21623XXSP,2013-01-15 12:40:00,
2013-01-15 06:45:00,5.9,0.8,29.96,WNW,292,0.7,1.6,79,0.00,,,0.00,WUHU21623XXSP,2013-01-15 12:45:00,
2013-01-15 06:50:00,5.9,0.8,29.96,WNW,292,0.2,3.1,79,0.00,,,0.00,WUHU21623XXSP,2013-01-15 12:50:00,
2013-01-15 06:55:00,6.1,0.9,29.96,WNW,292,0.3,3.1,79,0.00,,,0.00,WUHU21623XXSP,2013-01-15 12:55:00,
2013-01-15 07:00:00,5.9,0.8,29.96,WNW,292,1.1,3.4,79,0.00,,,0.00,WUHU21623XXSP,2013-01-15 13:00:00,
2013-01-15 07:05:00,6.1,0.9,29.96,WNW,292,0.0,3.4,79,0.00,,,0.00,WUHU21623XXSP,2013-01-15 13:05:00,
2013-01-15 07:10:00,6.1,0.9,29.96,WNW,292,2.2,2.7,79,0.00,,,0.00,WUHU21623XXSP,2013-01-15 13:10:00,
2013-01-15 07:15:00,6.1,0.6,29.96,WNW,292,2.9,2.9,78,0.00,,,0.00,WUHU21623XXSP,2013-01-15 13:15:00,
2013-01-15 07:20:00,5.9,0.8,29.96,WNW,292,0.1,2.9,79,0.00,,,0.00,WUHU21623XXSP,2013-01-15 13:20:00,
2013-01-15 07:25:00,5.9,0.8,29.96,WNW,292,0.5,3.8,79,0.00,,,0.00,WUHU21623XXSP,2013-01-15 13:25:00,
2013-01-15 07:30:00,5.7,0.3,29.96,WNW,292,2.0,4.0,78,0.00,,,0.00,WUHU21623XXSP,2013-01-15 13:30:00,
2013-01-15 07:35:00,5.7,0.6,29.96,WNW,292,4.9,4.9,79,0.00,,,0.00,WUHU21623XXSP,2013-01-15 13:35:00,
2013-01-15 07:40:00,5.5,0.1,29.96,WNW,292,0.1,4.9,78,0.00,,,0.00,WUHU21623XXSP,2013-01-15 13:40:00,
2013-01-15 07:45:00,5.5,0.1,29.96,WNW,292,0.7,4.3,78,0.00,,,0.00,WUHU21623XXSP,2013-01-15 13:45:00,
2013-01-15 07:50:00,5.5,0.1,29.96,WNW,292,0.5,3.4,78,0.00,,,0.00,WUHU21623XXSP,2013-01-15 13:50:00,
2013-01-15 07:55:00,5.5,0.4,29.96,WNW,292,1.0,4.0,79,0.00,,,0.00,WUHU21623XXSP,2013-01-15 13:55:00,
2013-01-15 08:00:00,5.4,-0.1,29.96,WNW,292,0.0,4.0,78,0.00,,,0.00,WUHU21623XXSP,2013-01-15 14:00:00,
2013-01-15 08:05:00,5.4,0.2,29.96,WNW,292,1.3,2.7,79,0.00,,,0.00,WUHU21623XXSP,2013-01-15 14:05:00,
2013-01-15 08:10:00,5.2,0.0,29.97,WNW,292,0.5,2.7,79,0.00,,,0.00,WUHU21623XXSP,2013-01-15 14:10:00,
2013-01-15 08:15:00,4.8,-0.3,29.96,WNW,292,0.0,2.7,79,0.00,,,0.00,WUHU21623XXSP,2013-01-15 14:15:00,
2013-01-15 08:20:00,4.8,-0.3,29.96,WNW,292,0.3,2.2,79,0.00,,,0.00,WUHU21623XXSP,2013-01-15 14:20:00,
2013-01-15 08:25:00,4.6,-0.5,29.97,WNW,292,0.4,2.9,79,0.00,,,0.00,WUHU21623XXSP,2013-01-15 14:25:00,
2013-01-15 08:30:00,4.8,-0.3,29.97,WNW,292,0.2,2.9,79,0.00,,,0.00,WUHU21623XXSP,2013-01-15 14:30:00,
2013-01-15 08:35:00,4.8,-0.3,29.96,WNW,292,1.6,2.2,79,0.00,,,0.00,WUHU21623XXSP,2013-01-15 14:35:00,
2013-01-15 08:40:00,4.8,-0.3,29.96,WNW,292,0.2,2.2,79,0.00,,,0.00,WUHU21623XXSP,2013-01-15 14:40:00,
2013-01-15 08:45:00,4.8,-0.3,29.96,WNW,292,0.5,2.5,79,0.00,,,0.00,WUHU21623XXSP,2013-01-15 14:45:00,
2013-01-15 08:50:00,5.2,0.0,29.96,WNW,292,2.2,2.5,79,0.00,,,0.00,WUHU21623XXSP,2013-01-15 14:50:00,
2013-01-15 08:55:00,5.2,0.0,29.96,WNW,292,0.1,3.8,79,0.00,,,0.00,WUHU21623XXSP,2013-01-15 14:55:00,
2013-01-15 09:00:00,5.4,-0.1,29.96,WNW,292,0.1,3.8,78,0.00,,,0.00,WUHU21623XXSP,2013-01-15 15:00:00,
2013-01-15 09:05:00,5.5,0.1,29.96,WNW,292,0.0,1.8,78,0.00,,,0.00,WUHU21623XXSP,2013-01-15 15:05:00,
2013-01-15 09:10:00,5.5,0.1,29.96,WNW,292,1.1,1.8,78,0.00,,,0.00,WUHU21623XXSP,2013-01-15 15:10:00,
2013-01-15 09:15:00,5.7,0.3,29.96,WNW,292,0.7,2.9,78,0.00,,,0.00,WUHU21623XXSP,2013-01-15 15:15:00,
2013-01-15 09:20:00,6.1,0.6,29.96,WNW,292,0.7,2.9,78,0.00,,,0.00,WUHU21623XXSP,2013-01-15 15:20:00,
2013-01-15 09:25:00,6.1,0.4,29.96,WNW,292,0.0,2.0,77,0.00,,,0.00,WUHU21623XXSP,2013-01-15 15:25:00,
2013-01-15 09:30:00,6.4,0.7,29.96,WNW,292,0.0,1.3,77,0.00,,,0.00,WUHU21623XXSP,2013-01-15 15:30:00,
2013-01-15 09:35:00,6.6,1.2,29.96,WNW,292,0.3,5.4,78,0.00,,,0.00,WUHU21623XXSP,2013-01-15 15:35:00,
2013-01-15 09:40:00,7.0,1.3,29.96,WNW,292,1.1,5.4,77,0.00,,,0.00,WUHU21623XXSP,2013-01-15 15:40:00,
2013-01-15 09:45:00,7.5,1.8,29.96,WNW,292,0.3,3.6,77,0.00,,,0.00,WUHU21623XXSP,2013-01-15 15:45:00,
2013-01-15 09:50:00,7.5,1.5,29.96,WNW,292,1.8,5.4,76,0.00,,,0.00,WUHU21623XXSP,2013-01-15 15:50:00,
2013-01-15 09:55:00,7.5,1.5,29.96,WNW,292,0.8,6.0,76,0.00,,,0.00,WUHU21623XXSP,2013-01-15 15:55:00,
2013-01-15 10:00:00,7.9,1.9,29.96,WNW,292,1.5,6.0,76,0.00,,,0.00,WUHU21623XXSP,2013-01-15 16:00:00,
2013-01-15 10:05:00,8.4,2.7,29.96,WNW,292,0.8,4.3,77,0.00,,,0.00,WUHU21623XXSP,2013-01-15 16:05:00,
2013-01-15 10:10:00,9.0,2.9,29.95,WNW,292,1.6,5.4,76,0.00,,,0.00,WUHU21623XXSP,2013-01-15 16:10:00,
2013-01-15 10:15:00,9.1,2.8,29.95,WNW,292,1.5,5.4,75,0.00,,,0.00,WUHU21623XXSP,2013-01-15 16:15:00,
2013-01-15 10:20:00,9.7,3.0,29.95,WNW,292,1.8,3.8,74,0.00,,,0.00,WUHU21623XXSP,2013-01-15 16:20:00,
2013-01-15 10:25:00,9.7,3.0,29.94,WNW,292,1.2,5.4,74,0.00,,,0.00,WUHU21623XXSP,2013-01-15 16:25:00,
2013-01-15 10:30:00,9.7,2.7,29.94,WNW,292,4.3,6.7,73,0.00,,,0.00,WUHU21623XXSP,2013-01-15 16:30:00,
2013-01-15 10:35:00,10.2,3.2,29.93,WNW,292,4.0,6.7,73,0.00,,,0.00,WUHU21623XXSP,2013-01-15 16:35:00,
2013-01-15 10:40:00,10.2,2.9,29.93,WNW,292,3.4,7.4,72,0.00,,,0.00,WUHU21623XXSP,2013-01-15 16:40:00,
2013-01-15 10:45:00,10.6,3.2,29.93,WNW,292,2.3,7.4,72,0.00,,,0.00,WUHU21623XXSP,2013-01-15 16:45:00,
2013-01-15 10:50:00,10.8,3.4,29.93,WNW,292,1.1,5.4,72,0.00,,,0.00,WUHU21623XXSP,2013-01-15 16:50:00,
2013-01-15 10:55:00,10.8,3.1,29.92,WNW,292,1.3,4.3,71,0.00,,,0.00,WUHU21623XXSP,2013-01-15 16:55:00,
2013-01-15 11:00:00,11.1,3.2,29.93,WNW,292,2.1,4.3,70,0.00,,,0.00,WUHU21623XXSP,2013-01-15 17:00:00,
2013-01-15 11:05:00,11.1,3.2,29.92,WNW,292,3.8,5.8,70,0.00,,,0.00,WUHU21623XXSP,2013-01-15 17:05:00,
2013-01-15 11:10:00,11.5,3.6,29.92,WNW,292,3.6,5.8,70,0.00,,,0.00,WUHU21623XXSP,2013-01-15 17:10:00,
2013-01-15 11:15:00,11.5,3.6,29.92,WNW,292,2.2,5.8,70,0.00,,,0.00,WUHU21623XXSP,2013-01-15 17:15:00,
2013-01-15 11:20:00,11.7,3.4,29.92,WNW,292,5.8,5.8,69,0.00,,,0.00,WUHU21623XXSP,2013-01-15 17:20:00,
2013-01-15 11:25:00,11.8,3.6,29.91,WNW,292,1.8,5.8,69,0.00,,,0.00,WUHU21623XXSP,2013-01-15 17:25:00,
2013-01-15 11:30:00,12.4,4.1,29.91,WNW,292,3.4,4.3,69,0.00,,,0.00,WUHU21623XXSP,2013-01-15 17:30:00,
2013-01-15 11:35:00,12.2,3.6,29.91,WNW,292,1.6,4.0,68,0.00,,,0.00,WUHU21623XXSP,2013-01-15 17:35:00,
2013-01-15 11:40:00,12.2,3.9,29.90,WNW,292,4.7,4.7,69,0.00,,,0.00,WUHU21623XXSP,2013-01-15 17:40:00,
2013-01-15 11:45:00,12.6,4.3,29.90,WNW,292,4.9,6.3,69,0.00,,,0.00,WUHU21623XXSP,2013-01-15 17:45:00,
2013-01-15 11:50:00,12.7,4.1,29.89,WNW,292,0.4,6.3,68,0.00,,,0.00,WUHU21623XXSP,2013-01-15 17:50:00,
2013-01-15 11:55:00,13.1,4.5,29.89,WNW,292,2.7,3.1,68,0.00,,,0.00,WUHU21623XXSP,2013-01-15 17:55:00,
2013-01-15 12:00:00,12.9,4.3,29.88,WNW,292,2.2,5.4,68,0.00,,,0.00,WUHU21623XXSP,2013-01-15 18:00:00,
2013-01-15 12:05:00,12.7,4.1,29.88,WNW,292,3.1,6.3,68,0.00,,,0.00,WUHU21623XXSP,2013-01-15 18:05:00,
2013-01-15 12:10:00,12.9,4.3,29.87,WNW,292,2.7,6.3,68,0.00,,,0.00,WUHU21623XXSP,2013-01-15 18:10:00,
2013-01-15 12:15:00,13.1,4.2,29.87,WNW,292,2.4,5.1,67,0.00,,,0.00,WUHU21623XXSP,2013-01-15 18:15:00,
2013-01-15 12:20:00,13.6,4.4,29.87,WNW,292,4.0,5.8,66,0.00,,,0.00,WUHU21623XXSP,2013-01-15 18:20:00,
2013-01-15 12:25:00,13.8,4.2,29.86,WNW,292,3.0,7.4,65,0.00,,,0.00,WUHU21623XXSP,2013-01-15 18:25:00,
2013-01-15 12:30:00,13.8,4.5,29.86,WNW,292,1.8,7.4,66,0.00,,,0.00,WUHU21623XXSP,2013-01-15 18:30:00,
2013-01-15 12:35:00,14.2,4.5,29.86,WNW,292,3.1,4.5,65,0.00,,,0.00,WUHU21623XXSP,2013-01-15 18:35:00,
2013-01-15 12:40:00,14.5,5.2,29.85,WNW,292,0.3,4.5,66,0.00,,,0.00,WUHU21623XXSP,2013-01-15 18:40:00,
2013-01-15 12:45:00,14.5,4.5,29.86,WNW,292,2.6,4.7,64,0.00,,,0.00,WUHU21623XXSP,2013-01-15 18:45:00,
2013-01-15 12:50:00,14.7,4.3,29.85,WNW,292,2.8,6.7,63,0.00,,,0.00,WUHU21623XXSP,2013-01-15 18:50:00,
2013-01-15 12:55:00,15.3,4.1,29.84,WNW,292,3.0,6.7,61,0.00,,,0.00,WUHU21623XXSP,2013-01-15 18:55:00,
2013-01-15 13:00:00,15.1,4.0,29.84,WNW,292,4.3,8.5,61,0.00,,,0.00,WUHU21623XXSP,2013-01-15 19:00:00,
2013-01-15 13:05:00,15.6,4.5,29.83,WNW,292,5.1,8.5,61,0.00,,,0.00,WUHU21623XXSP,2013-01-15 19:05:00,
2013-01-15 13:10:00,15.4,4.0,29.83,WNW,292,3.6,5.6,60,0.00,,,0.00,WUHU21623XXSP,2013-01-15 19:10:00,
2013-01-15 13:15:00,15.6,4.1,29.83,WNW,292,2.1,4.5,60,0.00,,,0.00,WUHU21623XXSP,2013-01-15 19:15:00,
2013-01-15 13:20:00,16.2,4.2,29.82,WNW,292,2.8,6.9,59,0.00,,,0.00,WUHU21623XXSP,2013-01-15 19:20:00,
2013-01-15 13:25:00,16.0,4.1,29.82,WNW,292,1.9,6.9,59,0.00,,,0.00,WUHU21623XXSP,2013-01-15 19:25:00,
2013-01-15 13:30:00,16.3,4.4,29.82,WNW,292,2.9,8.1,59,0.00,,,0.00,WUHU21623XXSP,2013-01-15 19:30:00,
2013-01-15 13:35:00,16.9,4.6,29.81,WNW,292,2.9,8.1,58,0.00,,,0.00,WUHU21623XXSP,2013-01-15 19:35:00,
2013-01-15 13:40:00,17.2,4.5,29.81,WNW,292,1.8,5.8,57,0.00,,,0.00,WUHU21623XXSP,2013-01-15 19:40:00,
2013-01-15 13:45:00,17.8,5.4,29.81,WNW,292,2.0,5.8,58,0.00,,,0.00,WUHU21623XXSP,2013-01-15 19:45:00,
2013-01-15 13:50:00,18.1,5.4,29.80,WNW,292,2.1,4.7,57,0.00,,,0.00,WUHU21623XXSP,2013-01-15 19:50:00,
2013-01-15 13:55:00,18.1,5.4,29.80,WNW,292,2.5,5.1,57,0.00,,,0.00,WUHU21623XXSP,2013-01-15 19:55:00,
2013-01-15 14:00:00,18.1,5.0,29.80,WNW,292,3.4,5.4,56,0.00,,,0.00,WUHU21623XXSP,2013-01-15 20:00:00,
2013-01-15 14:05:00,18.1,5.0,29.79,WNW,292,3.1,7.4,56,0.00,,,0.00,WUHU21623XXSP,2013-01-15 20:05:00,
2013-01-15 14:10:00,18.3,5.9,29.80,WNW,292,0.7,7.4,58,0.00,,,0.00,WUHU21623XXSP,2013-01-15 20:10:00,
2013-01-15 14:15:00,18.5,5.3,29.80,WNW,292,2.9,7.8,56,0.00,,,0.00,WUHU21623XXSP,2013-01-15 20:15:00,
2013-01-15 14:20:00,18.5,5.3,29.80,WNW,292,3.3,7.8,56,0.00,,,0.00,WUHU21623XXSP,2013-01-15 20:20:00,
2013-01-15 14:25:00,18.7,5.5,29.79,WNW,292,2.8,10.3,56,0.00,,,0.00,WUHU21623XXSP,2013-01-15 20:25:00,
2013-01-15 14:30:00,18.7,5.5,29.79,WNW,292,3.4,10.3,56,0.00,,,0.00,WUHU21623XXSP,2013-01-15 20:30:00,
2013-01-15 14:35:00,18.9,5.6,29.78,WNW,292,1.5,7.4,56,0.00,,,0.00,WUHU21623XXSP,2013-01-15 20:35:00,
2013-01-15 14:40:00,19.0,5.8,29.78,WNW,292,2.9,6.0,56,0.00,,,0.00,WUHU21623XXSP,2013-01-15 20:40:00,
2013-01-15 14:45:00,19.0,5.8,29.78,WNW,292,3.0,6.5,56,0.00,,,0.00,WUHU21623XXSP,2013-01-15 20:45:00,
2013-01-15 14:50:00,19.2,6.0,29.78,WNW,292,2.4,6.5,56,0.00,,,0.00,WUHU21623XXSP,2013-01-15 20:50:00,
2013-01-15 14:55:00,19.2,6.0,29.78,WNW,292,4.3,7.4,56,0.00,,,0.00,WUHU21623XXSP,2013-01-15 20:55:00,
2013-01-15 15:00:00,19.6,6.7,29.78,WNW,292,2.2,7.4,57,0.00,,,0.00,WUHU21623XXSP,2013-01-15 21:00:00,
2013-01-15 15:05:00,19.6,6.3,29.78,WNW,292,6.0,7.2,56,0.00,,,0.00,WUHU21623XXSP,2013-01-15 21:05:00,
2013-01-15 15:10:00,19.9,6.6,29.77,WNW,292,1.8,8.9,56,0.00,,,0.00,WUHU21623XXSP,2013-01-15 21:10:00,
2013-01-15 15:15:00,19.6,6.3,29.77,WNW,292,5.6,8.9,56,0.00,,,0.00,WUHU21623XXSP,2013-01-15 21:15:00,
2013-01-15 15:20:00,19.6,6.7,29.77,WNW,292,2.7,6.5,57,0.00,,,0.00,WUHU21623XXSP,2013-01-15 21:20:00,
2013-01-15 15:25:00,19.6,6.7,29.77,WNW,292,2.0,4.3,57,0.00,,,0.00,WUHU21623XXSP,2013-01-15 21:25:00,
2013-01-15 15:30:00,19.6,6.7,29.77,WNW,292,2.5,4.3,57,0.00,,,0.00,WUHU21623XXSP,2013-01-15 21:30:00,
2013-01-15 15:35:00,19.8,6.9,29.76,WNW,292,2.8,4.7,57,0.00,,,0.00,WUHU21623XXSP,2013-01-15 21:35:00,
2013-01-15 15:40:00,19.6,7.1,29.76,WNW,292,3.4,4.7,58,0.00,,,0.00,WUHU21623XXSP,2013-01-15 21:40:00,
2013-01-15 15:45:00,19.8,7.3,29.76,WNW,292,1.8,4.5,58,0.00,,,0.00,WUHU21623XXSP,2013-01-15 21:45:00,
2013-01-15 15:50:00,19.6,7.5,29.76,WNW,292,4.7,5.1,59,0.00,,,0.00,WUHU21623XXSP,2013-01-15 21:50:00,
2013-01-15 15:55:00,19.6,7.5,29.76,WNW,292,0.6,5.1,59,0.00,,,0.00,WUHU21623XXSP,2013-01-15 21:55:00,
2013-01-15 16:00:00,19.6,7.5,29.76,WNW,292,2.2,4.9,59,0.00,,,0.00,WUHU21623XXSP,2013-01-15 22:00:00,
2013-01-15 16:05:00,19.6,7.5,29.75,WNW,292,2.0,4.9,59,0.00,,,0.00,WUHU21623XXSP,2013-01-15 22:05:00,
2013-01-15 16:10:00,19.6,7.9,29.75,WNW,292,2.5,4.0,60,0.00,,,0.00,WUHU21623XXSP,2013-01-15 22:10:00,
2013-01-15 16:15:00,19.6,7.9,29.75,WNW,292,1.5,4.5,60,0.00,,,0.00,WUHU21623XXSP,2013-01-15 22:15:00,
2013-01-15 16:20:00,19.6,7.9,29.75,WNW,292,1.6,4.5,60,0.00,,,0.00,WUHU21623XXSP,2013-01-15 22:20:00,
2013-01-15 16:25:00,19.6,7.9,29.75,WNW,292,2.5,4.0,60,0.00,,,0.00,WUHU21623XXSP,2013-01-15 22:25:00,
2013-01-15 16:30:00,19.6,7.9,29.74,WNW,292,1.1,4.0,60,0.00,,,0.00,WUHU21623XXSP,2013-01-15 22:30:00,
2013-01-15 16:35:00,19.6,7.9,29.74,WNW,292,2.9,5.6,60,0.00,,,0.00,WUHU21623XXSP,2013-01-15 22:35:00,
2013-01-15 16:40:00,19.2,7.5,29.75,WNW,292,3.8,5.6,60,0.00,,,0.00,WUHU21623XXSP,2013-01-15 22:40:00,
2013-01-15 16:45:00,19.2,7.9,29.74,WNW,292,2.5,3.8,61,0.00,,,0.00,WUHU21623XXSP,2013-01-15 22:45:00,
2013-01-15 16:50:00,19.2,7.9,29.74,WNW,292,3.4,3.8,61,0.00,,,0.00,WUHU21623XXSP,2013-01-15 22:50:00,
2013-01-15 16:55:00,19.0,7.7,29.74,WNW,292,2.3,3.4,61,0.00,,,0.00,WUHU21623XXSP,2013-01-15 22:55:00,
2013-01-15 17:00:00,18.9,7.9,29.73,WNW,292,2.7,6.0,62,0.00,,,0.00,WUHU21623XXSP,2013-01-15 23:00:00,
2013-01-15 17:05:00,18.7,7.7,29.73,WNW,292,1.6,6.0,62,0.00,,,0.00,WUHU21623XXSP,2013-01-15 23:05:00,
2013-01-15 17:10:00,18.5,7.6,29.73,WNW,292,2.2,4.9,62,0.00,,,0.00,WUHU21623XXSP,2013-01-15 23:10:00,
2013-01-15 17:15:00,18.7,7.7,29.73,WNW,292,1.7,4.3,62,0.00,,,0.00,WUHU21623XXSP,2013-01-15 23:15:00,
2013-01-15 17:20:00,18.5,7.6,29.72,WNW,292,1.2,6.3,62,0.00,,,0.00,WUHU21623XXSP,2013-01-15 23:20:00,
2013-01-15 17:25:00,18.5,7.9,29.72,WNW,292,2.7,6.3,63,0.00,,,0.00,WUHU21623XXSP,2013-01-15 23:25:00,
2013-01-15 17:30:00,18.5,7.6,29.71,WNW,292,1.8,5.8,62,0.00,,,0.00,WUHU21623XXSP,2013-01-15 23:30:00,
2013-01-15 17:35:00,18.5,7.6,29.71,WNW,292,2.9,7.8,62,0.00,,,0.00,WUHU21623XXSP,2013-01-15 23:35:00,
2013-01-15 17:40:00,18.5,7.6,29.71,WNW,292,2.9,7.8,62,0.00,,,0.00,WUHU21623XXSP,2013-01-15 23:40:00,
2013-01-15 17:45:00,18.3,7.8,29.71,WNW,292,5.1,5.8,63,0.00,,,0.00,WUHU21623XXSP,2013-01-15 23:45:00,
2013-01-15 17:50:00,18.3,7.8,29.70,WNW,292,3.1,5.8,63,0.00,,,0.00,WUHU21623XXSP,2013-01-15 23:50:00,
2013-01-15 17:55:00,18.3,7.8,29.70,WNW,292,3.4,5.6,63,0.00,,,0.00,WUHU21623XXSP,2013-01-15 23:55:00,
2013-01-15 18:00:00,18.3,7.8,29.70,WNW,292,2.2,8.1,63,0.00,,,0.00,WUHU21623XXSP,2013-01-16 00:00:00,
2013-01-15 18:05:00,18.3,7.8,29.70,WNW,292,3.7,8.3,63,0.00,,,0.00,WUHU21623XXSP,2013-01-16 00:05:00,
2013-01-15 18:10:00,18.3,7.8,29.69,WNW,292,7.4,8.3,63,0.00,,,0.00,WUHU21623XXSP,2013-01-16 00:10:00,
2013-01-15 18:15:00,18.3,7.4,29.69,WNW,292,2.8,7.4,62,0.00,,,0.00,WUHU21623XXSP,2013-01-16 00:15:00,
2013-01-15 18:20:00,18.5,7.6,29.69,WNW,292,2.7,5.6,62,0.00,,,0.00,WUHU21623XXSP,2013-01-16 00:20:00,
2013-01-15 18:25:00,18.3,7.4,29.68,WNW,292,2.6,5.8,62,0.00,,,0.00,WUHU21623XXSP,2013-01-16 00:25:00,
2013-01-15 18:30:00,18.3,7.8,29.68,WNW,292,3.1,8.9,63,0.00,,,0.00,WUHU21623XXSP,2013-01-16 00:30:00,
2013-01-15 18:35:00,18.3,7.4,29.68,WNW,292,3.1,8.9,62,0.00,,,0.00,WUHU21623XXSP,2013-01-16 00:35:00,
2013-01-15 18:40:00,18.3,7.4,29.68,WNW,292,2.5,8.3,62,0.00,,,0.00,WUHU21623XXSP,2013-01-16 00:40:00,
2013-01-15 18:45:00,18.5,7.6,29.67,WNW,292,3.6,8.3,62,0.00,,,0.00,WUHU21623XXSP,2013-01-16 00:45:00,
2013-01-15 18:50:00,18.7,7.7,29.68,WNW,292,2.9,8.3,62,0.00,,,0.00,WUHU21623XXSP,2013-01-16 00:50:00,
2013-01-15 18:55:00,18.3,7.1,29.67,WNW,292,5.8,6.5,61,0.00,,,0.00,WUHU21623XXSP,2013-01-16 00:55:00,
2013-01-15 19:00:00,18.3,7.1,29.67,WNW,292,3.0,6.5,61,0.00,,,0.00,WUHU21623XXSP,2013-01-16 01:00:00,
2013-01-15 19:05:00,18.3,7.1,29.67,WNW,292,5.0,9.2,61,0.00,,,0.00,WUHU21623XXSP,2013-01-16 01:05:00,
2013-01-15 19:10:00,18.3,7.1,29.66,WNW,292,1.8,9.2,61,0.00,,,0.00,WUHU21623XXSP,2013-01-16 01:10:00,
2013-01-15 19:15:00,18.1,6.9,29.66,WNW,292,2.4,6.3,61,0.00,,,0.00,WUHU21623XXSP,2013-01-16 01:15:00,
2013-01-15 19:20:00,18.1,6.9,29.66,WNW,292,4.3,6.9,61,0.00,,,0.00,WUHU21623XXSP,2013-01-16 01:20:00,
2013-01-15 19:25:00,18.1,6.9,29.66,WNW,292,4.9,9.2,61,0.00,,,0.00,WUHU21623XXSP,2013-01-16 01:25:00,
2013-01-15 19:30:00,18.0,6.7,29.65,WNW,292,2.9,9.2,61,0.00,,,0.00,WUHU21623XXSP,2013-01-16 01:30:00,
2013-01-15 19:35:00,18.0,7.1,29.65,WNW,292,3.4,8.1,62,0.00,,,0.00,WUHU21623XXSP,2013-01-16 01:35:00,
2013-01-15 19:40:00,17.8,6.6,29.64,WNW,292,4.3,6.0,61,0.00,,,0.00,WUHU21623XXSP,2013-01-16 01:40:00,
2013-01-15 19:45:00,17.8,6.6,29.64,WNW,292,2.9,5.4,61,0.00,,,0.00,WUHU21623XXSP,2013-01-16 01:45:00,
2013-01-15 19:50:00,17.8,6.6,29.64,WNW,292,2.3,7.4,61,0.00,,,0.00,WUHU21623XXSP,2013-01-16 01:50:00,
2013-01-15 19:55:00,17.8,6.9,29.63,WNW,292,2.9,7.4,62,0.00,,,0.00,WUHU21623XXSP,2013-01-16 01:55:00,
2013-01-15 20:00:00,17.4,6.6,29.63,WNW,292,4.0,4.9,62,0.00,,,0.00,WUHU21623XXSP,2013-01-16 02:00:00,
2013-01-15 20:05:00,17.4,6.6,29.62,WNW,292,3.8,6.7,62,0.00,,,0.00,WUHU21623XXSP,2013-01-16 02:05:00,
2013-01-15 20:10:00,17.4,6.9,29.62,WNW,292,4.0,6.7,63,0.00,,,0.00,WUHU21623XXSP,2013-01-16 02:10:00,
2013-01-15 20:15:00,17.4,6.6,29.62,WNW,292,2.3,11.2,62,0.00,,,0.00,WUHU21623XXSP,2013-01-16 02:15:00,
2013-01-15 20:20:00,17.8,6.6,29.62,WNW,292,2.0,11.2,61,0.00,,,0.00,WUHU21623XXSP,2013-01-16 02:20:00,
2013-01-15 20:25:00,17.8,6.6,29.62,WNW,292,2.4,6.0,61,0.00,,,0.00,WUHU21623XXSP,2013-01-16 02:25:00,
2013-01-15 20:30:00,17.8,6.9,29.62,WNW,292,1.7,6.0,62,0.00,,,0.00,WUHU21623XXSP,2013-01-16 02:30:00,
2013-01-15 20:35:00,17.8,6.9,29.61,WNW,292,2.9,4.3,62,0.00,,,0.00,WUHU21623XXSP,2013-01-16 02:35:00,
2013-01-15 20:40:00,17.8,6.6,29.61,WNW,292,2.1,6.9,61,0.00,,,0.00,WUHU21623XXSP,2013-01-16 02:40:00,
2013-01-15 20:45:00,17.8,6.9,29.61,WNW,292,2.1,6.9,62,0.00,,,0.00,WUHU21623XXSP,2013-01-16 02:45:00,
2013-01-15 20:50:00,17.8,6.9,29.60,WNW,292,2.0,6.0,62,0.00,,,0.00,WUHU21623XXSP,2013-01-16 02:50:00,
2013-01-15 20:55:00,17.8,6.9,29.60,WNW,292,1.9,4.5,62,0.00,,,0.00,WUHU21623XXSP,2013-01-16 02:55:00,
2013-01-15 21:00:00,17.8,6.9,29.60,WNW,292,3.7,6.7,62,0.00,,,0.00,WUHU21623XXSP,2013-01-16 03:00:00,
2013-01-15 21:05:00,17.8,6.9,29.59,WNW,292,0.2,6.7,62,0.00,,,0.00,WUHU21623XXSP,2013-01-16 03:05:00,
2013-01-15 21:10:00,17.8,6.9,29.59,WNW,292,2.9,5.6,62,0.00,,,0.00,WUHU21623XXSP,2013-01-16 03:10:00,
2013-01-15 21:15:00,18.0,7.1,29.59,WNW,292,2.2,7.2,62,0.00,,,0.00,WUHU21623XXSP,2013-01-16 03:15:00,
2013-01-15 21:20:00,18.1,7.3,29.58,WNW,292,3.6,8.3,62,0.00,,,0.00,WUHU21623XXSP,2013-01-16 03:20:00,
2013-01-15 21:25:00,18.1,7.3,29.58,WNW,292,1.5,8.3,62,0.00,,,0.00,WUHU21623XXSP,2013-01-16 03:25:00,
2013-01-15 21:30:00,18.1,7.6,29.57,WNW,292,2.9,11.4,63,0.00,,,0.00,WUHU21623XXSP,2013-01-16 03:30:00,
2013-01-15 21:35:00,18.1,7.6,29.57,WNW,292,2.9,11.4,63,0.00,,,0.00,WUHU21623XXSP,2013-01-16 03:35:00,
2013-01-15 21:40:00,18.1,7.9,29.57,WNW,292,4.3,6.5,64,0.00,,,0.00,WUHU21623XXSP,2013-01-16 03:40:00,
2013-01-15 21:45:00,18.1,7.9,29.56,WNW,292,3.8,6.0,64,0.00,,,0.00,WUHU21623XXSP,2013-01-16 03:45:00,
2013-01-15 21:50:00,18.1,7.9,29.56,WNW,292,2.9,5.6,64,0.00,,,0.00,WUHU21623XXSP,2013-01-16 03:50:00,
2013-01-15 21:55:00,18.3,8.1,29.56,WNW,292,0.9,5.6,64,0.00,,,0.00,WUHU21623XXSP,2013-01-16 03:55:00,
2013-01-15 22:00:00,18.1,7.9,29.56,WNW,292,2.1,5.8,64,0.00,,,0.00,WUHU21623XXSP,2013-01-16 04:00:00,
2013-01-15 22:05:00,18.1,8.3,29.55,WNW,292,1.4,7.8,65,0.00,,,0.00,WUHU21623XXSP,2013-01-16 04:05:00,
2013-01-15 22:10:00,18.1,8.3,29.54,WNW,292,2.9,7.8,65,0.00,,,0.00,WUHU21623XXSP,2013-01-16 04:10:00,
2013-01-15 22:15:00,18.1,8.3,29.54,WNW,292,3.4,6.7,65,0.00,,,0.00,WUHU21623XXSP,2013-01-16 04:15:00,
2013-01-15 22:20:00,18.1,8.6,29.54,WNW,292,3.8,8.5,66,0.00,,,0.00,WUHU21623XXSP,2013-01-16 04:20:00,
2013-01-15 22:25:00,18.1,8.6,29.54,WNW,292,2.9,8.9,66,0.00,,,0.00,WUHU21623XXSP,2013-01-16 04:25:00,
2013-01-15 22:30:00,18.1,8.6,29.54,WNW,292,4.0,8.9,66,0.00,,,0.00,WUHU21623XXSP,2013-01-16 04:30:00,
2013-01-15 22:35:00,18.1,8.6,29.53,WNW,292,1.1,7.8,66,0.00,,,0.00,WUHU21623XXSP,2013-01-16 04:35:00,
2013-01-15 22:40:00,18.3,8.8,29.53,WNW,292,2.5,7.8,66,0.00,,,0.00,WUHU21623XXSP,2013-01-16 04:40:00,
2013-01-15 22:45:00,18.3,8.8,29.53,WNW,292,2.9,5.6,66,0.00,,,0.00,WUHU21623XXSP,2013-01-16 04:45:00,
2013-01-15 22:50:00,18.3,8.8,29.52,WNW,292,2.9,5.6,66,0.00,,,0.00,WUHU21623XXSP,2013-01-16 04:50:00,
2013-01-15 22:55:00,18.5,8.9,29.51,WNW,292,1.4,5.6,66,0.00,,,0.00,WUHU21623XXSP,2013-01-16 04:55:00,
2013-01-15 23:00:00,18.5,8.9,29.51,WNW,292,1.1,3.8,66,0.00,,,0.00,WUHU21623XXSP,2013-01-16 05:00:00,
2013-01-15 23:01:00,18.5,8.9,29.51,WNW,292,1.6,3.6,66,0.00,,,0.00,WUHU21623XXSP,2013-01-16 05:01:00,
2013-01-15 23:02:00,18.7,9.1,29.51,WNW,292,1.0,3.6,66,0.00,,,0.00,WUHU21623XXSP,2013-01-16 05:02:00,
2013-01-15 23:07:00,18.7,9.1,29.50,WNW,292,3.4,6.7,66,0.00,,,0.00,WUHU21623XXSP,2013-01-16 05:07:00,
2013-01-15 23:12:00,18.9,8.9,29.50,WNW,292,2.4,7.8,65,0.00,,,0.00,WUHU21623XXSP,2013-01-16 05:12:00,
2013-01-15 23:17:00,19.0,9.4,29.49,WNW,292,2.5,7.8,66,0.00,,,0.00,WUHU21623XXSP,2013-01-16 05:17:00,
2013-01-15 23:22:00,19.2,9.2,29.49,WNW,292,1.0,5.1,65,0.00,,,0.00,WUHU21623XXSP,2013-01-16 05:22:00,
2013-01-15 23:27:00,19.2,8.9,29.48,WNW,292,2.8,5.8,64,0.00,,,0.00,WUHU21623XXSP,2013-01-16 05:27:00,
2013-01-15 23:32:00,19.2,9.2,29.48,WNW,292,2.6,6.7,65,0.00,,,0.00,WUHU21623XXSP,2013-01-16 05:32:00,
2013-01-15 23:37:00,19.4,9.1,29.47,WNW,292,3.7,7.2,64,0.00,,,0.00,WUHU21623XXSP,2013-01-16 05:37:00,
2013-01-15 23:42:00,19.6,9.6,29.47,WNW,292,2.9,8.1,65,0.00,,,0.00,WUHU21623XXSP,2013-01-16 05:42:00,
2013-01-15 23:47:00,19.6,9.6,29.47,WNW,292,2.7,10.5,65,0.00,,,0.00,WUHU21623XXSP,2013-01-16 05:47:00,
2013-01-15 23:52:00,19.6,9.9,29.46,WNW,292,2.9,10.5,66,0.00,,,0.00,WUHU21623XXSP,2013-01-16 05:52:00,
2013-01-15 23:57:00,19.6,9.6,29.45,WNW,292,5.6,6.0,65,0.00,,,0.00,WUHU21623XXSP,2013-01-16 05:57:00,